Time;durP1;ratioP1;P1;durP2;ratioP2;P2;SDS_P1;SDS_P2;PMS_P1;PMS_P2;Temp;Humidity;BMP_temperature;BMP_pressure;BME280_temperature;BME280_humidity;BME280_pressure;Samples;Min_cycle;Max_cycle;Signal;HPM_P1;HPM_P2
2022/11/03 00:00:57;;;;;;;5.82;3.08;;;;;;;14.77;44.18;63522.09;5086074;28;20509;-79
2022/11/03 00:03:25;;;;;;;5.55;3.13;;;;;;;14.77;43.57;63524.66;5081579;28;20283;-77
2022/11/03 00:06:07;;;;;;;2.00;1.80;;;;;;;14.73;43.46;63520.53;5063858;28;20197;-77
2022/11/03 00:08:36;;;;;;;3.10;2.10;;;;;;;14.68;43.56;63512.75;5064708;28;20217;-77
2022/11/03 00:11:05;;;;;;;4.65;2.50;;;;;;;14.70;43.91;63517.38;5064473;28;20197;-77
2022/11/03 00:13:32;;;;;;;10.68;2.53;;;;;;;14.63;44.20;63512.16;5064174;28;20537;-76
2022/11/03 00:15:59;;;;;;;4.68;2.95;;;;;;;14.60;44.74;63507.00;5064900;28;20220;-76
2022/11/03 00:18:27;;;;;;;3.17;2.80;;;;;;;14.59;45.19;63505.44;5064548;28;20217;-77
2022/11/03 00:20:58;;;;;;;8.07;3.40;;;;;;;14.61;45.57;63508.06;5064640;28;20523;-78
2022/11/03 00:23:27;;;;;;;6.20;2.60;;;;;;;14.61;45.36;63512.66;5083670;28;20235;-76
2022/11/03 00:25:55;;;;;;;2.25;2.05;;;;;;;14.58;45.22;63510.03;5093289;28;20200;-77
2022/11/03 00:28:21;;;;;;;7.70;2.97;;;;;;;14.61;45.27;63508.06;5103687;28;20216;-78
2022/11/03 00:30:48;;;;;;;3.60;2.65;;;;;;;14.60;45.73;63507.00;5096826;28;20196;-77
2022/11/03 00:33:15;;;;;;;2.50;2.20;;;;;;;14.61;44.98;63504.97;5086157;28;20254;-77
2022/11/03 00:35:44;;;;;;;3.22;2.50;;;;;;;14.62;45.57;63513.69;5085413;28;20439;-78
2022/11/03 00:38:11;;;;;;;4.78;2.17;;;;;;;14.64;45.53;63508.06;5085363;28;20255;-78
2022/11/03 00:40:38;;;;;;;6.20;2.65;;;;;;;14.66;46.42;63515.81;5085154;28;20378;-77
2022/11/03 00:43:04;;;;;;;3.22;2.35;;;;;;;14.66;46.46;63517.84;5087499;28;20267;-77
2022/11/03 00:45:31;;;;;;;6.65;2.55;;;;;;;14.69;46.24;63516.34;5081957;28;20197;-77
2022/11/03 00:50:44;;;;;;;5.03;2.90;;;;;;;14.80;47.01;63525.22;5064355;28;20405;-77
2022/11/03 00:53:11;;;;;;;5.32;2.85;;;;;;;14.82;46.78;63532.41;5064767;28;20249;-77
2022/11/03 00:55:37;;;;;;;6.97;3.40;;;;;;;14.84;47.11;63529.38;5073852;28;20207;-77
2022/11/03 00:58:04;;;;;;;3.63;2.70;;;;;;;14.85;46.91;63532.47;5083616;28;20208;-77
2022/11/03 01:00:31;;;;;;;4.53;2.80;;;;;;;14.95;46.73;63547.97;5085288;28;20219;-77
2022/11/03 01:02:58;;;;;;;5.35;3.22;;;;;;;14.95;47.03;63533.13;5083182;28;20243;-78
2022/11/03 01:08:10;;;;;;;9.50;3.40;;;;;;;15.01;47.25;63552.16;5066059;28;20236;-76
2022/11/03 01:11:42;;;;;;;5.78;3.13;;;;;;;15.04;47.27;63549.63;5063008;28;20201;-77
2022/11/03 01:13:26;;;;;;;4.88;3.13;;;;;;;15.03;47.67;63551.16;5064807;28;20217;-78
2022/11/03 01:15:57;;;;;;;5.18;3.38;;;;;;;15.01;47.78;63554.72;5064846;28;20198;-76
2022/11/03 01:18:24;;;;;;;6.15;3.17;;;;;;;15.00;47.86;63550.59;5063257;28;20468;-77
2022/11/03 01:20:54;;;;;;;3.80;3.50;;;;;;;14.96;48.29;63541.34;5063614;28;20415;-77
2022/11/03 01:23:22;;;;;;;6.40;3.08;;;;;;;14.97;48.54;63545.44;5065830;28;20237;-77
2022/11/03 01:25:50;;;;;;;6.03;3.75;;;;;;;14.95;49.30;63540.28;5079397;28;20257;-77
2022/11/03 01:28:17;;;;;;;7.10;3.25;;;;;;;14.89;49.22;63539.19;5104009;28;20219;-78
2022/11/03 01:30:44;;;;;;;6.05;3.47;;;;;;;14.86;50.00;63531.44;5098017;28;20264;-77
2022/11/03 01:33:11;;;;;;;5.40;3.50;;;;;;;14.81;50.14;63526.25;5064971;28;20255;-77
2022/11/03 01:35:38;;;;;;;5.03;3.42;;;;;;;14.78;50.50;63525.19;5063691;28;20243;-78
2022/11/03 01:38:04;;;;;;;5.78;3.80;;;;;;;14.71;50.55;63518.44;5064986;28;20209;-76
2022/11/03 01:40:33;;;;;;;5.05;3.28;;;;;;;14.75;50.56;63519.50;5062924;28;20201;-77
2022/11/03 01:43:15;;;;;;;5.07;3.50;;;;;;;14.84;50.58;63528.88;5063362;28;20233;-77
2022/11/03 01:45:43;;;;;;;4.78;3.20;;;;;;;14.78;50.49;63525.72;5065415;28;20204;-77
2022/11/03 01:48:12;;;;;;;4.15;3.30;;;;;;;14.76;50.23;63521.06;5066086;28;20217;-77
2022/11/03 01:50:42;;;;;;;7.40;3.20;;;;;;;14.76;50.23;63520.53;5067605;28;20263;-77
2022/11/03 01:53:10;;;;;;;7.10;3.25;;;;;;;14.79;50.40;63526.22;5067765;28;20217;-76
2022/11/03 01:55:40;;;;;;;7.82;3.55;;;;;;;14.82;50.42;63529.34;5068728;28;20205;-78
2022/11/03 01:58:13;;;;;;;5.90;3.17;;;;;;;14.79;50.55;63524.19;5066376;28;20259;-77
2022/11/03 02:00:42;;;;;;;12.13;4.07;;;;;;;14.81;50.71;63530.84;5069108;28;20192;-76
2022/11/03 02:03:10;;;;;;;8.82;3.65;;;;;;;14.77;50.97;63524.16;5066593;28;20271;-78
2022/11/03 02:05:38;;;;;;;5.40;3.30;;;;;;;14.76;51.31;63523.63;5066908;28;20409;-77
2022/11/03 02:08:09;;;;;;;6.43;4.40;;;;;;;14.75;51.03;63527.19;5081035;28;20231;-76
2022/11/03 02:10:39;;;;;;;6.32;3.50;;;;;;;14.73;51.43;63520.00;5086219;28;20274;-78
2022/11/03 02:13:12;;;;;;;3.97;3.60;;;;;;;14.74;51.45;63518.47;5086059;28;20290;-77
2022/11/03 02:15:40;;;;;;;11.88;3.53;;;;;;;14.67;51.46;63516.84;5089123;28;20181;-77
2022/11/03 02:18:08;;;;;;;5.50;3.58;;;;;;;14.62;51.85;63506.00;5067820;28;20224;-77
2022/11/03 02:20:35;;;;;;;5.40;3.92;;;;;;;14.57;51.84;63503.88;5066206;28;20447;-78
2022/11/03 02:23:20;;;;;;;4.05;3.63;;;;;;;14.55;52.17;63501.81;5068636;28;20243;-77
2022/11/03 02:25:50;;;;;;;8.50;3.40;;;;;;;14.61;52.36;63512.66;5073647;28;20211;-77
2022/11/03 02:28:20;;;;;;;7.18;4.57;;;;;;;14.53;52.61;63496.66;5085767;28;20220;-78
2022/11/03 02:30:54;;;;;;;4.55;3.83;;;;;;;14.52;52.98;63501.25;5088571;28;20197;-79
2022/11/03 02:33:30;;;;;;;7.22;3.65;;;;;;;14.55;52.96;63501.28;5086667;28;20213;-76
2022/11/03 02:36:03;;;;;;;11.10;3.80;;;;;;;14.58;53.15;63502.34;5084061;28;20204;-77
2022/11/03 02:38:33;;;;;;;6.82;5.15;;;;;;;14.63;53.26;63509.59;5086209;28;20251;-77
2022/11/03 02:41:05;;;;;;;8.73;4.68;;;;;;;14.64;53.45;63508.59;5086230;28;20201;-78
2022/11/03 02:43:32;;;;;;;8.07;4.32;;;;;;;14.67;53.94;63513.75;5079574;28;20303;-77
2022/11/03 02:46:01;;;;;;;8.40;4.85;;;;;;;14.66;54.13;63513.25;5065194;28;20231;-77
2022/11/03 02:48:28;;;;;;;12.23;4.60;;;;;;;14.60;54.62;63507.00;5068753;28;20255;-78
2022/11/03 02:50:55;;;;;;;6.82;4.40;;;;;;;14.60;54.59;63509.06;5065124;28;20193;-78
2022/11/03 02:53:22;;;;;;;9.77;4.30;;;;;;;14.58;54.84;63504.91;5066297;28;20244;-78
2022/11/03 02:55:55;;;;;;;7.90;4.47;;;;;;;14.51;55.21;63497.16;5067163;28;20197;-78
2022/11/03 02:58:30;;;;;;;7.55;4.15;;;;;;;14.45;55.36;63490.91;5065751;28;20217;-77
2022/11/03 03:01:04;;;;;;;5.32;3.53;;;;;;;14.49;55.39;63498.16;5064832;28;20200;-77
2022/11/03 03:03:35;;;;;;;10.70;4.85;;;;;;;14.55;55.55;63501.28;5065258;28;20241;-78
2022/11/03 03:06:07;;;;;;;8.38;4.28;;;;;;;14.52;55.66;63496.13;5068992;28;20239;-77
2022/11/03 03:08:35;;;;;;;8.50;3.70;;;;;;;14.46;55.98;63492.47;5064605;28;20228;-78
2022/11/03 03:11:04;;;;;;;7.15;4.28;;;;;;;14.58;55.68;63506.97;5064502;28;20350;-78
2022/11/03 03:13:33;;;;;;;11.23;4.65;;;;;;;14.65;55.56;63514.25;5078656;28;20212;-78
2022/11/03 03:16:10;;;;;;;5.30;4.25;;;;;;;14.61;55.99;63510.63;5084500;28;20501;-77
2022/11/03 03:18:47;;;;;;;7.10;4.32;;;;;;;14.64;56.13;63506.03;5087172;28;20222;-77
2022/11/03 03:21:21;;;;;;;7.28;4.55;;;;;;;14.70;56.22;63525.06;5087473;28;20223;-81
2022/11/03 03:24:02;;;;;;;6.57;5.53;;;;;;;14.75;56.66;63524.63;5087282;28;20238;-81
2022/11/03 03:26:33;;;;;;;9.35;5.43;;;;;;;14.71;56.82;63523.03;5103150;28;20241;-81
2022/11/03 03:29:09;;;;;;;9.50;5.07;;;;;;;14.76;56.62;63523.63;5092985;28;20227;-81
2022/11/03 03:31:41;;;;;;;9.60;4.80;;;;;;;14.78;56.89;63523.16;5085927;28;20432;-82
2022/11/03 03:34:10;;;;;;;7.72;4.82;;;;;;;14.74;56.87;63521.03;5089751;28;20217;-77
2022/11/03 03:36:40;;;;;;;8.23;5.53;;;;;;;14.78;56.70;63522.63;5089775;28;20195;-79
2022/11/03 03:39:12;;;;;;;7.25;4.60;;;;;;;14.71;56.73;63518.44;5080513;28;20244;-81
2022/11/03 03:41:42;;;;;;;6.95;4.38;;;;;;;14.71;56.92;63523.03;5090200;28;20189;-78
2022/11/03 03:44:17;;;;;;;6.82;4.07;;;;;;;14.70;56.83;63516.88;5088378;28;20232;-80
2022/11/03 03:46:51;;;;;;;6.53;4.10;;;;;;;14.61;56.74;63505.50;5084082;28;20509;-79
2022/11/03 03:49:18;;;;;;;8.77;3.90;;;;;;;14.57;56.88;63501.31;5068757;28;20185;-77
2022/11/03 03:51:47;;;;;;;5.53;3.45;;;;;;;14.50;57.21;63501.75;5066588;28;20277;-76
2022/11/03 03:54:14;;;;;;;7.03;3.58;;;;;;;14.47;57.43;63490.41;5064413;28;20217;-76
2022/11/03 03:56:46;;;;;;;9.95;4.63;;;;;;;14.42;57.75;63485.22;5063727;28;20208;-77
2022/11/03 03:59:14;;;;;;;4.43;3.72;;;;;;;14.36;57.88;63487.19;5067267;28;20192;-77
2022/11/03 04:01:41;;;;;;;5.57;4.07;;;;;;;14.33;58.37;63481.53;5063966;28;20247;-78
2022/11/03 04:04:08;;;;;;;10.27;4.78;;;;;;;14.33;58.55;63476.41;5064965;28;20233;-76
2022/11/03 04:06:35;;;;;;;8.23;4.47;;;;;;;14.26;58.78;63473.72;5082724;28;20205;-77
2022/11/03 04:09:02;;;;;;;10.98;4.72;;;;;;;14.21;59.42;63471.59;5083860;28;20216;-76
2022/11/03 04:22:31;;;;;;;7.30;4.63;;;;;;;13.70;62.15;63416.09;5065300;28;20672;-78
2022/11/03 04:24:58;;;;;;;7.78;4.88;;;;;;;13.60;62.62;63408.28;5066723;28;20193;-77
2022/11/03 04:27:30;;;;;;;7.25;4.90;;;;;;;13.53;63.36;63396.41;5104389;28;20293;-79
2022/11/03 04:30:06;;;;;;;9.45;5.90;;;;;;;13.43;63.62;63382.97;5106487;28;20200;-80
2022/11/03 04:32:34;;;;;;;11.55;5.80;;;;;;;13.36;63.92;63378.25;5093270;28;20216;-80
2022/11/03 04:35:01;;;;;;;14.05;5.43;;;;;;;13.24;64.23;63363.75;5082260;28;20201;-78
2022/11/03 04:37:29;;;;;;;4.85;4.45;;;;;;;13.24;64.94;63365.81;5086602;28;20224;-78
2022/11/03 04:39:59;;;;;;;8.13;4.88;;;;;;;13.07;65.26;63346.13;5083645;28;20200;-77
2022/11/03 04:42:27;;;;;;;4.80;3.67;;;;;;;13.02;65.42;63346.06;5072068;28;20217;-77
2022/11/03 04:44:54;;;;;;;6.85;4.40;;;;;;;12.93;64.98;63333.63;5064087;28;20228;-78
2022/11/03 04:47:23;;;;;;;11.00;4.10;;;;;;;12.89;64.46;63329.50;5065439;28;20221;-78
2022/11/03 04:49:50;;;;;;;9.93;4.03;;;;;;;12.84;64.80;63324.31;5063981;28;20189;-77
2022/11/03 04:52:19;;;;;;;6.30;4.43;;;;;;;12.75;65.42;63318.03;5064272;28;20252;-77
2022/11/03 04:54:49;;;;;;;10.63;5.75;;;;;;;12.70;66.00;63310.81;5066009;28;20255;-77
2022/11/03 04:57:18;;;;;;;9.07;5.05;;;;;;;12.69;66.47;63306.69;5063307;28;20212;-77
2022/11/03 04:59:47;;;;;;;7.28;4.43;;;;;;;12.65;66.92;63307.66;5069428;28;20258;-77
2022/11/03 05:02:18;;;;;;;5.57;4.97;;;;;;;12.64;67.39;63306.63;5085743;28;20222;-77
2022/11/03 05:04:46;;;;;;;8.93;5.47;;;;;;;12.63;67.88;63300.50;5083662;28;20449;-78
2022/11/03 05:07:24;;;;;;;9.60;5.10;;;;;;;12.65;68.02;63305.09;5085173;28;20238;-78
2022/11/03 05:09:52;;;;;;;7.53;6.18;;;;;;;12.63;68.46;63303.56;5068409;28;20250;-77
2022/11/03 05:12:20;;;;;;;10.68;5.78;;;;;;;12.68;69.26;63308.22;5074863;28;20220;-76
2022/11/03 05:14:47;;;;;;;7.47;4.65;;;;;;;12.65;69.57;63302.53;5084748;28;20258;-79
2022/11/03 05:17:23;;;;;;;8.77;5.70;;;;;;;12.57;69.41;63299.38;5085517;28;20570;-76
2022/11/03 05:19:57;;;;;;;7.57;4.28;;;;;;;12.56;69.78;63301.41;5085053;28;20234;-77
2022/11/03 05:22:29;;;;;;;7.45;5.13;;;;;;;12.56;69.46;63293.72;5086455;28;20255;-78
2022/11/03 05:25:01;;;;;;;7.50;4.88;;;;;;;12.60;68.96;63303.00;5087731;28;20252;-77
2022/11/03 05:27:28;;;;;;;7.13;4.90;;;;;;;12.51;69.40;63291.09;5098228;28;20226;-77
2022/11/03 05:29:59;;;;;;;6.18;4.40;;;;;;;12.51;69.46;63288.56;5089401;28;20193;-78
2022/11/03 05:32:30;;;;;;;10.07;5.10;;;;;;;12.65;69.94;63305.63;5088587;28;20221;-77
2022/11/03 05:34:58;;;;;;;6.47;5.22;;;;;;;12.67;70.59;63307.19;5089367;28;20189;-78
2022/11/03 05:37:28;;;;;;;11.68;6.38;;;;;;;12.66;70.42;63298.50;5071758;28;20225;-77
2022/11/03 05:39:58;;;;;;;9.30;5.35;;;;;;;12.71;69.98;63306.22;5067110;28;20197;-77
2022/11/03 05:42:32;;;;;;;12.38;6.15;;;;;;;12.81;70.08;63321.69;5067214;28;20221;-77
2022/11/03 05:45:02;;;;;;;14.52;7.57;;;;;;;12.90;69.79;63330.50;5067697;28;20237;-78
2022/11/03 05:47:36;;;;;;;10.88;5.45;;;;;;;12.99;70.23;63339.84;5086817;28;20224;-78
2022/11/03 05:50:16;;;;;;;12.32;6.45;;;;;;;13.02;70.25;63342.97;5089805;28;20181;-76
2022/11/03 05:52:44;;;;;;;14.70;7.20;;;;;;;13.08;70.73;63349.72;5084306;28;20220;-78
2022/11/03 05:55:25;;;;;;;18.50;7.32;;;;;;;13.09;71.17;63355.34;5089619;28;20210;-77
2022/11/03 05:57:53;;;;;;;13.52;7.90;;;;;;;13.28;70.80;63367.94;5096598;28;20224;-77
2022/11/03 06:00:27;;;;;;;15.07;8.18;;;;;;;13.33;70.83;63372.59;5104742;28;20489;-77
2022/11/03 06:02:55;;;;;;;10.70;6.85;;;;;;;13.40;70.83;63382.41;5098351;28;20216;-77
2022/11/03 06:05:24;;;;;;;10.75;6.53;;;;;;;13.45;70.19;63385.56;5097197;28;20195;-76
2022/11/03 06:07:54;;;;;;;14.57;6.55;;;;;;;13.53;70.01;63395.91;5108051;28;20224;-77
2022/11/03 06:10:25;;;;;;;11.57;7.15;;;;;;;13.66;69.35;63412.47;5099780;28;20192;-77
2022/11/03 06:12:54;;;;;;;14.52;6.80;;;;;;;13.82;68.63;63423.44;5087773;28;20577;-78
2022/11/03 06:15:30;;;;;;;13.10;7.40;;;;;;;13.94;68.38;63435.91;5086669;28;20192;-78
2022/11/03 06:17:58;;;;;;;12.45;6.88;;;;;;;14.03;68.44;63447.78;5089974;28;20246;-78
2022/11/03 06:20:27;;;;;;;13.02;7.25;;;;;;;14.17;68.53;63461.81;5085468;28;20203;-77
2022/11/03 06:22:56;;;;;;;9.30;7.40;;;;;;;14.26;68.89;63471.16;5085108;28;20224;-77
2022/11/03 06:25:33;;;;;;;12.55;7.75;;;;;;;14.17;69.06;63459.75;5094866;28;20220;-77
2022/11/03 06:28:03;;;;;;;11.90;7.82;;;;;;;14.14;70.20;63459.22;5087127;28;20532;-77
2022/11/03 06:30:32;;;;;;;19.85;9.20;;;;;;;14.28;70.46;63473.78;5087899;28;20193;-77
2022/11/03 06:33:02;;;;;;;19.00;9.18;;;;;;;14.42;69.94;63490.88;5083711;28;20266;-77
2022/11/03 06:35:30;;;;;;;15.18;8.60;;;;;;;14.60;68.88;63504.44;5087343;28;20219;-77
2022/11/03 06:37:57;;;;;;;14.25;9.27;;;;;;;14.81;67.44;63530.84;5087318;28;20443;-78
2022/11/03 06:40:36;;;;;;;19.13;9.00;;;;;;;14.89;66.92;63539.19;5075844;28;20239;-77
2022/11/03 06:43:14;;;;;;;19.10;9.43;;;;;;;15.04;65.08;63552.19;5065902;28;20521;-77
2022/11/03 06:45:50;;;;;;;19.17;9.63;;;;;;;15.01;64.65;63549.59;5073355;28;20196;-78
2022/11/03 06:48:23;;;;;;;18.23;9.05;;;;;;;14.97;64.94;63547.50;5083746;28;20220;-76
2022/11/03 06:50:52;;;;;;;16.23;9.95;;;;;;;15.11;64.55;63558.94;5068579;28;20211;-77
2022/11/03 06:53:26;;;;;;;14.63;10.10;;;;;;;14.96;64.86;63544.41;5066259;28;20445;-77
2022/11/03 06:55:53;;;;;;;17.80;9.13;;;;;;;14.90;66.12;63535.63;5085154;28;20188;-78
2022/11/03 06:58:27;;;;;;;22.98;11.02;;;;;;;14.83;66.44;63527.81;5085010;28;20205;-77
2022/11/03 07:00:57;;;;;;;17.60;10.85;;;;;;;14.97;66.22;63542.34;5087327;28;20199;-77
2022/11/03 07:03:29;;;;;;;20.08;11.32;;;;;;;15.00;65.99;63546.00;5085258;28;20329;-77
2022/11/03 07:06:00;;;;;;;18.75;10.27;;;;;;;15.22;65.60;63570.38;5084807;28;20197;-79
2022/11/03 07:08:29;;;;;;;20.40;10.50;;;;;;;15.38;64.92;63582.41;5090004;28;20221;-78
2022/11/03 07:11:02;;;;;;;15.05;9.88;;;;;;;15.49;63.89;63601.56;5085408;28;20550;-77
2022/11/03 07:13:33;;;;;;;16.25;10.15;;;;;;;15.67;63.19;63614.63;5085653;28;20223;-77
2022/11/03 07:16:00;;;;;;;17.77;10.73;;;;;;;15.67;62.56;63614.63;5071181;28;20498;-77
2022/11/03 07:18:31;;;;;;;22.83;11.23;;;;;;;15.66;63.04;63613.56;5066311;28;20250;-78
2022/11/03 07:21:06;;;;;;;19.67;10.73;;;;;;;15.73;62.01;63623.94;5066680;28;20185;-77
2022/11/03 07:23:33;;;;;;;18.75;9.25;;;;;;;15.67;62.07;63619.75;5073838;28;20228;-80
2022/11/03 07:26:01;;;;;;;21.95;11.25;;;;;;;15.88;61.79;63642.09;5097877;28;20217;-77
2022/11/03 07:28:32;;;;;;;23.98;10.43;;;;;;;16.05;61.15;63657.22;5098831;28;20216;-78
2022/11/03 07:31:01;;;;;;;22.52;10.88;;;;;;;16.17;59.78;63669.69;5085243;28;20192;-77
2022/11/03 07:33:31;;;;;;;19.38;11.27;;;;;;;16.26;59.75;63678.53;5068641;28;20216;-79
2022/11/03 07:36:03;;;;;;;14.32;9.52;;;;;;;16.34;57.93;63684.28;5086982;28;20204;-78
2022/11/03 07:38:33;;;;;;;18.17;10.93;;;;;;;16.27;58.44;63679.06;5087117;28;20220;-76
2022/11/03 07:41:00;;;;;;;23.70;11.43;;;;;;;16.28;58.94;63678.03;5086506;28;20219;-77
2022/11/03 07:43:31;;;;;;;20.55;10.40;;;;;;;16.23;58.90;63683.13;5066084;28;20238;-78
2022/11/03 07:46:00;;;;;;;18.73;10.43;;;;;;;16.15;58.71;63664.53;5064950;28;20196;-77
2022/11/03 07:48:32;;;;;;;18.38;10.50;;;;;;;16.13;59.19;63662.94;5069574;28;20246;-77
2022/11/03 07:51:15;;;;;;;21.67;10.40;;;;;;;16.22;58.76;63674.38;5076587;28;20204;-77
2022/11/03 07:53:44;;;;;;;27.60;10.82;;;;;;;16.04;59.43;63653.59;5068083;28;20217;-76
2022/11/03 07:56:18;;;;;;;20.67;10.15;;;;;;;16.22;58.45;63671.81;5068895;28;20223;-76
2022/11/03 07:58:44;;;;;;;19.50;9.93;;;;;;;16.25;58.00;63680.06;5076401;28;20247;-77
2022/11/03 08:01:26;;;;;;;15.23;11.43;;;;;;;16.17;58.65;63674.31;5080004;28;20371;-77
2022/11/03 08:03:58;;;;;;;24.25;11.57;;;;;;;16.10;58.96;63664.97;5090077;28;20449;-78
2022/11/03 08:06:27;;;;;;;17.48;10.18;;;;;;;16.07;59.67;63659.28;5084947;28;20219;-77
2022/11/03 08:08:54;;;;;;;22.95;10.90;;;;;;;16.20;58.93;63674.88;5081198;28;20216;-76
2022/11/03 08:11:22;;;;;;;17.88;9.35;;;;;;;16.30;56.51;63682.69;5085027;28;20386;-77
2022/11/03 08:13:49;;;;;;;14.88;8.35;;;;;;;16.42;56.35;63697.22;5078918;28;20247;-77
2022/11/03 08:16:16;;;;;;;18.50;9.93;;;;;;;16.59;56.83;63718.03;5081013;28;20199;-76
2022/11/03 08:18:43;;;;;;;19.13;11.18;;;;;;;16.59;57.39;63712.88;5084605;28;20317;-77
2022/11/03 08:21:10;;;;;;;19.50;9.52;;;;;;;16.88;56.39;63740.47;5084842;28;20200;-76
2022/11/03 08:23:39;;;;;;;18.35;10.40;;;;;;;16.89;55.45;63743.59;5082706;28;20276;-77
2022/11/03 08:26:06;;;;;;;18.27;11.25;;;;;;;16.90;55.27;63742.56;5086313;28;20265;-77
2022/11/03 08:28:33;;;;;;;22.17;11.48;;;;;;;17.11;54.95;63767.00;5085243;28;20218;-76
2022/11/03 08:31:03;;;;;;;19.27;10.40;;;;;;;17.24;54.62;63783.09;5084991;28;20285;-78
2022/11/03 08:33:31;;;;;;;17.60;9.98;;;;;;;17.16;54.96;63771.69;5081780;28;20212;-76
2022/11/03 08:35:57;;;;;;;22.52;10.98;;;;;;;17.23;55.12;63778.97;5084067;28;20211;-79
2022/11/03 08:38:24;;;;;;;19.40;10.98;;;;;;;17.39;54.76;63792.53;5083872;28;20223;-77
2022/11/03 08:40:52;;;;;;;16.00;9.85;;;;;;;17.09;54.35;63761.81;5077129;28;20218;-77
2022/11/03 08:43:19;;;;;;;26.52;11.30;;;;;;;17.15;54.21;63771.16;5086455;28;20273;-78
2022/11/03 08:45:46;;;;;;;18.15;9.98;;;;;;;17.24;53.67;63783.09;5078906;28;20238;-77
2022/11/03 08:48:13;;;;;;;19.35;11.20;;;;;;;17.50;53.26;63806.59;5079126;28;20215;-76
2022/11/03 08:50:40;;;;;;;20.75;10.23;;;;;;;17.57;53.14;63813.88;5077500;28;20208;-76
2022/11/03 08:53:07;;;;;;;22.73;10.82;;;;;;;17.74;52.72;63831.56;5082186;28;20242;-75
2022/11/03 08:55:34;;;;;;;19.10;10.95;;;;;;;17.79;52.79;63836.78;5072299;28;20200;-77
2022/11/03 08:58:02;;;;;;;16.40;9.57;;;;;;;17.62;52.78;63817.00;5085055;28;20216;-77
2022/11/03 09:00:29;;;;;;;20.80;10.55;;;;;;;17.86;51.69;63841.50;5087025;28;20196;-77
2022/11/03 09:02:56;;;;;;;30.63;10.60;;;;;;;18.04;51.33;63863.34;5086958;28;20223;-76
2022/11/03 09:05:23;;;;;;;19.92;10.60;;;;;;;18.23;51.35;63885.19;5083141;28;20211;-77
2022/11/03 09:07:49;;;;;;;22.63;10.20;;;;;;;17.99;51.30;63857.59;5078440;28;20219;-78
2022/11/03 09:10:16;;;;;;;22.20;10.98;;;;;;;18.17;51.52;63873.78;5086850;28;20230;-76
2022/11/03 09:12:43;;;;;;;27.58;10.63;;;;;;;18.37;50.90;63900.31;5088579;28;20220;-77
2022/11/03 09:15:12;;;;;;;17.33;10.52;;;;;;;18.15;51.53;63871.69;5087472;28;20197;-77
2022/11/03 09:17:39;;;;;;;26.73;11.98;;;;;;;18.22;51.28;63884.16;5088670;28;20216;-77
2022/11/03 09:20:06;;;;;;;17.55;10.55;;;;;;;18.27;51.60;63884.19;5080573;28;20279;-76
2022/11/03 09:22:33;;;;;;;18.17;10.70;;;;;;;18.45;51.08;63902.97;5086395;28;20430;-78
2022/11/03 09:25:00;;;;;;;16.73;11.02;;;;;;;18.62;50.95;63925.84;5088224;28;20235;-75
2022/11/03 09:27:27;;;;;;;17.70;9.65;;;;;;;18.71;49.82;63937.81;5095763;28;20227;-75
2022/11/03 09:29:54;;;;;;;16.55;9.93;;;;;;;18.48;50.27;63905.56;5086280;28;20200;-78
2022/11/03 09:32:22;;;;;;;24.15;11.45;;;;;;;18.58;50.04;63921.16;5087162;28;20220;-76
2022/11/03 09:34:49;;;;;;;18.42;10.55;;;;;;;18.37;50.33;63900.31;5089595;28;20257;-75
2022/11/03 09:37:16;;;;;;;25.38;10.05;;;;;;;18.37;50.55;63899.78;5085640;28;20228;-74
2022/11/03 09:39:43;;;;;;;22.48;10.50;;;;;;;18.63;50.17;63924.31;5086136;28;20215;-75
2022/11/03 09:42:12;;;;;;;24.15;10.63;;;;;;;18.78;50.11;63939.41;5079417;28;20224;-74
2022/11/03 09:44:39;;;;;;;21.08;10.23;;;;;;;18.86;49.11;63947.75;5088049;28;20232;-76
2022/11/03 09:47:06;;;;;;;16.95;10.43;;;;;;;19.04;48.86;63964.47;5086041;28;20388;-75
2022/11/03 09:49:36;;;;;;;27.67;11.20;;;;;;;19.25;47.82;63991.53;5087431;28;20259;-75
2022/11/03 09:52:04;;;;;;;19.60;10.35;;;;;;;19.30;47.67;64001.41;5086681;28;20200;-75
2022/11/03 09:54:31;;;;;;;16.73;10.23;;;;;;;19.32;47.98;63998.31;5084405;28;20230;-74
2022/11/03 09:57:06;;;;;;;20.98;9.23;;;;;;;19.36;47.66;63997.34;5084349;28;20212;-75
2022/11/03 09:59:32;;;;;;;24.63;10.13;;;;;;;19.44;47.24;64010.84;5089764;28;20196;-74
2022/11/03 10:01:59;;;;;;;14.43;9.32;;;;;;;19.43;47.12;64010.31;5086083;28;20234;-76
2022/11/03 10:04:28;;;;;;;22.55;9.63;;;;;;;19.69;46.91;64031.72;5084360;28;20219;-75
2022/11/03 10:06:57;;;;;;;15.18;9.30;;;;;;;19.65;46.72;64032.22;5093173;28;20214;-76
2022/11/03 10:09:27;;;;;;;15.48;8.10;;;;;;;19.83;46.41;64043.25;5086292;28;20437;-76
2022/11/03 10:11:54;;;;;;;24.88;10.43;;;;;;;20.00;45.22;64066.16;5086349;28;20392;-75
2022/11/03 10:14:23;;;;;;;12.38;8.43;;;;;;;19.92;46.01;64057.78;5083353;28;20192;-75
2022/11/03 10:16:55;;;;;;;15.65;8.73;;;;;;;20.05;45.27;64074.47;5086403;28;20195;-75
2022/11/03 10:19:24;;;;;;;15.50;8.25;;;;;;;20.08;45.20;64074.50;5086882;28;20199;-75
2022/11/03 10:21:51;;;;;;;17.00;8.85;;;;;;;19.68;45.84;64033.28;5085755;28;20239;-74
2022/11/03 10:24:22;;;;;;;17.08;7.85;;;;;;;19.88;44.87;64059.31;5087217;28;20256;-76
2022/11/03 10:26:51;;;;;;;15.57;7.38;;;;;;;20.03;43.80;64069.28;5084364;28;20261;-76
2022/11/03 10:29:20;;;;;;;15.30;7.15;;;;;;;20.11;44.63;64080.19;5080084;28;20378;-77
2022/11/03 10:31:50;;;;;;;17.45;7.80;;;;;;;20.25;44.49;64089.66;5082580;28;20442;-76
2022/11/03 10:34:39;;;;;;;15.88;7.30;;;;;;;20.37;43.15;64102.72;5084473;28;20246;-79
2022/11/03 10:37:11;;;;;;;13.27;7.25;;;;;;;20.53;42.59;64121.47;5087733;28;20215;-77
2022/11/03 10:39:40;;;;;;;16.75;7.13;;;;;;;20.49;42.44;64123.00;5086968;28;20196;-76
2022/11/03 10:42:18;;;;;;;13.20;7.07;;;;;;;20.43;42.49;64111.53;5089539;28;20261;-77
2022/11/03 10:44:45;;;;;;;15.70;7.90;;;;;;;20.44;43.05;64110.00;5095946;28;20232;-77
2022/11/03 10:47:32;;;;;;;9.80;5.97;;;;;;;20.43;41.41;64111.03;5095665;28;20223;-77
2022/11/03 10:49:59;;;;;;;11.75;6.00;;;;;;;20.45;42.55;64116.22;5082460;28;20210;-77
2022/11/03 10:52:29;;;;;;;18.27;5.88;;;;;;;20.49;41.51;64119.88;5093394;28;20212;-78
2022/11/03 10:54:59;;;;;;;13.93;7.32;;;;;;;20.38;42.08;64108.41;5083641;28;20246;-77
2022/11/03 10:57:27;;;;;;;13.77;6.53;;;;;;;20.38;42.17;64106.34;5084730;28;20220;-77
2022/11/03 10:59:55;;;;;;;14.55;6.30;;;;;;;20.32;42.67;64102.66;5082254;28;20228;-77
2022/11/03 11:02:25;;;;;;;14.75;7.78;;;;;;;20.20;42.39;64087.03;5084274;28;20237;-75
2022/11/03 11:04:56;;;;;;;14.25;7.18;;;;;;;20.24;42.52;64096.38;5085631;28;20231;-76
2022/11/03 11:07:29;;;;;;;12.32;5.38;;;;;;;20.39;41.59;64109.44;5085950;28;20226;-76
2022/11/03 11:10:06;;;;;;;12.73;6.47;;;;;;;19.99;41.11;64067.69;5084238;28;20196;-75
2022/11/03 11:12:33;;;;;;;13.80;6.13;;;;;;;19.94;41.05;64060.41;5084649;28;20261;-76
2022/11/03 11:15:06;;;;;;;11.93;5.53;;;;;;;20.04;40.54;64070.31;5084771;28;20195;-77
2022/11/03 11:17:48;;;;;;;10.68;3.95;;;;;;;20.00;39.59;64063.56;5085063;28;20212;-76
2022/11/03 11:20:31;;;;;;;9.05;4.32;;;;;;;20.15;39.52;64081.78;5083373;28;20190;-75
2022/11/03 11:23:31;;;;;;;12.30;4.40;;;;;;;19.99;39.77;64068.22;5085590;28;20589;-76
2022/11/03 11:26:14;;;;;;;10.05;4.85;;;;;;;19.76;39.99;64039.03;5089322;28;20212;-75
2022/11/03 11:28:42;;;;;;;6.80;5.10;;;;;;;19.69;40.61;64036.41;5080172;28;20223;-75
2022/11/03 11:31:34;;;;;;;7.32;4.38;;;;;;;19.71;39.46;64035.91;5079284;28;20193;-74
2022/11/03 11:34:38;;;;;;;12.05;3.85;;;;;;;19.72;39.99;64034.34;5073371;28;20224;-75
2022/11/03 11:37:34;;;;;;;6.45;3.38;;;;;;;19.89;39.86;64057.25;5084917;28;20265;-75
2022/11/03 11:40:01;;;;;;;9.02;4.72;;;;;;;20.01;38.88;64067.19;5085531;28;20245;-75
2022/11/03 11:42:32;;;;;;;7.35;3.78;;;;;;;20.02;39.47;64068.25;5086871;28;20212;-76
2022/11/03 11:45:01;;;;;;;8.50;4.15;;;;;;;19.99;40.29;64068.22;5082268;28;20431;-78
2022/11/03 11:47:46;;;;;;;9.88;5.25;;;;;;;20.12;39.91;64081.25;5082925;28;20277;-76
2022/11/03 11:50:26;;;;;;;9.40;4.82;;;;;;;20.16;39.95;64083.38;5084268;28;20404;-76
2022/11/03 11:52:58;;;;;;;15.80;5.00;;;;;;;20.20;39.48;64092.19;5085270;28;20520;-76
2022/11/03 11:55:38;;;;;;;10.20;5.50;;;;;;;20.25;39.61;64097.41;5082595;28;20196;-75
2022/11/03 11:58:14;;;;;;;9.55;4.10;;;;;;;20.31;39.04;64103.69;5087763;28;20379;-76